sensor_id;sensor_type;location;lat;lon;timestamp;P1;durP1;ratioP1;P2;durP2;ratioP2
48122;SDS011;33907;47.426;18.906;2023-05-21T00:01:28;14.68;;;9.38;;
48122;SDS011;33907;47.426;18.906;2023-05-21T00:03:56;14.13;;;9.30;;
48122;SDS011;33907;47.426;18.906;2023-05-21T00:06:26;13.82;;;8.65;;
48122;SDS011;33907;47.426;18.906;2023-05-21T00:08:53;15.35;;;9.35;;
48122;SDS011;33907;47.426;18.906;2023-05-21T00:11:22;14.27;;;8.70;;
48122;SDS011;33907;47.426;18.906;2023-05-21T00:13:50;15.13;;;9.18;;
48122;SDS011;33907;47.426;18.906;2023-05-21T00:16:17;12.85;;;7.93;;
48122;SDS011;33907;47.426;18.906;2023-05-21T00:18:45;16.98;;;9.07;;
48122;SDS011;33907;47.426;18.906;2023-05-21T00:21:16;16.60;;;9.50;;
48122;SDS011;33907;47.426;18.906;2023-05-21T00:23:43;13.70;;;8.40;;
48122;SDS011;33907;47.426;18.906;2023-05-21T00:26:11;14.23;;;8.98;;
48122;SDS011;33907;47.426;18.906;2023-05-21T00:28:41;14.05;;;9.57;;
48122;SDS011;33907;47.426;18.906;2023-05-21T00:31:08;15.15;;;9.25;;
48122;SDS011;33907;47.426;18.906;2023-05-21T00:33:36;14.80;;;9.80;;
48122;SDS011;33907;47.426;18.906;2023-05-21T00:36:04;13.82;;;9.90;;
48122;SDS011;33907;47.426;18.906;2023-05-21T00:38:32;13.48;;;9.13;;
48122;SDS011;33907;47.426;18.906;2023-05-21T00:41:03;11.88;;;8.93;;
48122;SDS011;33907;47.426;18.906;2023-05-21T00:43:30;14.40;;;9.65;;
48122;SDS011;33907;47.426;18.906;2023-05-21T00:45:58;14.02;;;9.38;;
48122;SDS011;33907;47.426;18.906;2023-05-21T00:48:26;12.20;;;9.20;;
48122;SDS011;33907;47.426;18.906;2023-05-21T00:50:54;15.38;;;9.40;;
48122;SDS011;33907;47.426;18.906;2023-05-21T00:53:21;17.02;;;9.95;;
48122;SDS011;33907;47.426;18.906;2023-05-21T00:55:49;13.07;;;9.07;;
48122;SDS011;33907;47.426;18.906;2023-05-21T00:58:17;15.45;;;9.35;;
48122;SDS011;33907;47.426;18.906;2023-05-21T01:00:45;15.13;;;9.50;;
48122;SDS011;33907;47.426;18.906;2023-05-21T01:03:13;12.82;;;8.32;;
48122;SDS011;33907;47.426;18.906;2023-05-21T01:05:42;14.23;;;9.38;;
48122;SDS011;33907;47.426;18.906;2023-05-21T01:08:11;13.98;;;9.55;;
48122;SDS011;33907;47.426;18.906;2023-05-21T01:10:39;20.20;;;9.02;;
48122;SDS011;33907;47.426;18.906;2023-05-21T01:13:06;15.52;;;9.35;;
48122;SDS011;33907;47.426;18.906;2023-05-21T01:15:34;14.50;;;9.68;;
48122;SDS011;33907;47.426;18.906;2023-05-21T01:18:04;12.60;;;8.52;;
48122;SDS011;33907;47.426;18.906;2023-05-21T01:20:33;12.00;;;8.50;;
48122;SDS011;33907;47.426;18.906;2023-05-21T01:23:01;14.32;;;9.45;;
48122;SDS011;33907;47.426;18.906;2023-05-21T01:25:29;11.95;;;8.90;;
48122;SDS011;33907;47.426;18.906;2023-05-21T01:27:57;16.08;;;9.07;;
48122;SDS011;33907;47.426;18.906;2023-05-21T01:30:25;13.05;;;8.63;;
48122;SDS011;33907;47.426;18.906;2023-05-21T01:32:55;14.32;;;8.35;;
48122;SDS011;33907;47.426;18.906;2023-05-21T01:35:26;12.68;;;8.80;;
48122;SDS011;33907;47.426;18.906;2023-05-21T01:40:33;11.57;;;8.38;;
48122;SDS011;33907;47.426;18.906;2023-05-21T01:43:04;11.10;;;8.93;;
48122;SDS011;33907;47.426;18.906;2023-05-21T01:45:34;16.48;;;9.75;;
48122;SDS011;33907;47.426;18.906;2023-05-21T01:48:04;12.18;;;8.65;;
48122;SDS011;33907;47.426;18.906;2023-05-21T01:50:34;12.85;;;8.82;;
48122;SDS011;33907;47.426;18.906;2023-05-21T01:53:03;17.33;;;9.27;;
48122;SDS011;33907;47.426;18.906;2023-05-21T01:55:32;14.85;;;9.13;;
48122;SDS011;33907;47.426;18.906;2023-05-21T01:58:00;10.80;;;8.23;;
48122;SDS011;33907;47.426;18.906;2023-05-21T02:00:29;12.00;;;8.95;;
48122;SDS011;33907;47.426;18.906;2023-05-21T02:02:58;13.93;;;8.77;;
48122;SDS011;33907;47.426;18.906;2023-05-21T02:05:26;16.90;;;8.90;;
48122;SDS011;33907;47.426;18.906;2023-05-21T02:07:54;15.20;;;8.95;;
48122;SDS011;33907;47.426;18.906;2023-05-21T02:10:23;12.70;;;8.63;;
48122;SDS011;33907;47.426;18.906;2023-05-21T02:12:51;11.82;;;9.05;;
48122;SDS011;33907;47.426;18.906;2023-05-21T02:15:18;14.68;;;8.90;;
48122;SDS011;33907;47.426;18.906;2023-05-21T02:17:46;14.90;;;8.77;;
48122;SDS011;33907;47.426;18.906;2023-05-21T02:20:17;12.85;;;9.35;;
48122;SDS011;33907;47.426;18.906;2023-05-21T02:22:46;11.90;;;8.88;;
48122;SDS011;33907;47.426;18.906;2023-05-21T02:25:15;12.95;;;8.40;;
48122;SDS011;33907;47.426;18.906;2023-05-21T02:27:43;17.35;;;8.55;;
48122;SDS011;33907;47.426;18.906;2023-05-21T02:30:13;11.45;;;8.52;;
48122;SDS011;33907;47.426;18.906;2023-05-21T02:32:42;14.02;;;8.95;;
48122;SDS011;33907;47.426;18.906;2023-05-21T02:35:12;12.93;;;8.95;;
48122;SDS011;33907;47.426;18.906;2023-05-21T02:37:39;17.02;;;9.50;;
48122;SDS011;33907;47.426;18.906;2023-05-21T02:40:07;14.82;;;8.70;;
48122;SDS011;33907;47.426;18.906;2023-05-21T02:42:37;11.95;;;8.27;;
48122;SDS011;33907;47.426;18.906;2023-05-21T02:45:10;13.40;;;9.18;;
48122;SDS011;33907;47.426;18.906;2023-05-21T02:47:39;13.15;;;8.73;;
48122;SDS011;33907;47.426;18.906;2023-05-21T02:50:07;12.10;;;9.48;;
48122;SDS011;33907;47.426;18.906;2023-05-21T02:52:37;11.50;;;8.35;;
48122;SDS011;33907;47.426;18.906;2023-05-21T02:55:04;11.68;;;9.13;;
48122;SDS011;33907;47.426;18.906;2023-05-21T02:57:32;14.48;;;8.60;;
48122;SDS011;33907;47.426;18.906;2023-05-21T03:00:00;12.25;;;8.32;;
48122;SDS011;33907;47.426;18.906;2023-05-21T03:02:28;12.37;;;7.70;;
48122;SDS011;33907;47.426;18.906;2023-05-21T03:04:56;16.98;;;8.95;;
48122;SDS011;33907;47.426;18.906;2023-05-21T03:07:24;14.90;;;8.82;;
48122;SDS011;33907;47.426;18.906;2023-05-21T03:09:52;12.73;;;8.40;;
48122;SDS011;33907;47.426;18.906;2023-05-21T03:12:20;13.32;;;8.82;;
48122;SDS011;33907;47.426;18.906;2023-05-21T03:14:48;13.07;;;9.43;;
48122;SDS011;33907;47.426;18.906;2023-05-21T03:17:19;14.93;;;8.48;;
48122;SDS011;33907;47.426;18.906;2023-05-21T03:19:46;12.80;;;9.15;;
48122;SDS011;33907;47.426;18.906;2023-05-21T03:22:15;15.25;;;7.78;;
48122;SDS011;33907;47.426;18.906;2023-05-21T03:24:44;12.65;;;8.32;;
48122;SDS011;33907;47.426;18.906;2023-05-21T03:27:12;12.10;;;8.45;;
48122;SDS011;33907;47.426;18.906;2023-05-21T03:29:40;13.38;;;8.98;;
48122;SDS011;33907;47.426;18.906;2023-05-21T03:32:09;16.10;;;8.40;;
48122;SDS011;33907;47.426;18.906;2023-05-21T03:34:37;12.55;;;8.23;;
48122;SDS011;33907;47.426;18.906;2023-05-21T03:37:04;13.27;;;7.95;;
48122;SDS011;33907;47.426;18.906;2023-05-21T03:39:33;12.70;;;8.18;;
48122;SDS011;33907;47.426;18.906;2023-05-21T03:42:00;11.80;;;8.13;;
48122;SDS011;33907;47.426;18.906;2023-05-21T03:44:30;14.43;;;8.35;;
48122;SDS011;33907;47.426;18.906;2023-05-21T03:46:59;13.48;;;7.75;;
48122;SDS011;33907;47.426;18.906;2023-05-21T03:49:27;13.05;;;8.43;;
48122;SDS011;33907;47.426;18.906;2023-05-21T03:51:54;11.15;;;8.07;;
48122;SDS011;33907;47.426;18.906;2023-05-21T03:54:22;11.15;;;8.25;;
48122;SDS011;33907;47.426;18.906;2023-05-21T03:56:50;12.18;;;7.72;;
48122;SDS011;33907;47.426;18.906;2023-05-21T03:59:18;11.10;;;7.07;;
48122;SDS011;33907;47.426;18.906;2023-05-21T04:01:46;10.35;;;7.45;;
48122;SDS011;33907;47.426;18.906;2023-05-21T04:04:15;11.73;;;7.35;;
48122;SDS011;33907;47.426;18.906;2023-05-21T04:06:42;12.63;;;8.02;;
48122;SDS011;33907;47.426;18.906;2023-05-21T04:09:10;11.25;;;7.82;;
48122;SDS011;33907;47.426;18.906;2023-05-21T04:11:38;11.55;;;7.35;;
48122;SDS011;33907;47.426;18.906;2023-05-21T04:14:06;13.93;;;7.65;;
48122;SDS011;33907;47.426;18.906;2023-05-21T04:16:33;10.57;;;7.40;;
48122;SDS011;33907;47.426;18.906;2023-05-21T04:19:03;11.38;;;7.80;;
48122;SDS011;33907;47.426;18.906;2023-05-21T04:21:31;10.00;;;7.07;;
48122;SDS011;33907;47.426;18.906;2023-05-21T04:23:58;11.80;;;6.47;;
48122;SDS011;33907;47.426;18.906;2023-05-21T04:26:27;10.27;;;6.93;;
48122;SDS011;33907;47.426;18.906;2023-05-21T04:28:56;11.07;;;7.10;;
48122;SDS011;33907;47.426;18.906;2023-05-21T04:31:25;13.82;;;7.07;;
48122;SDS011;33907;47.426;18.906;2023-05-21T04:33:53;10.30;;;6.85;;
48122;SDS011;33907;47.426;18.906;2023-05-21T04:36:21;11.32;;;6.43;;
48122;SDS011;33907;47.426;18.906;2023-05-21T04:38:48;11.90;;;6.43;;
48122;SDS011;33907;47.426;18.906;2023-05-21T04:41:17;11.57;;;6.25;;
48122;SDS011;33907;47.426;18.906;2023-05-21T04:43:45;9.75;;;6.30;;
48122;SDS011;33907;47.426;18.906;2023-05-21T04:46:13;16.40;;;7.12;;
48122;SDS011;33907;47.426;18.906;2023-05-21T04:48:41;12.05;;;6.75;;
48122;SDS011;33907;47.426;18.906;2023-05-21T04:51:09;11.63;;;6.18;;
48122;SDS011;33907;47.426;18.906;2023-05-21T04:53:37;9.43;;;6.35;;
48122;SDS011;33907;47.426;18.906;2023-05-21T04:56:06;11.32;;;6.57;;
48122;SDS011;33907;47.426;18.906;2023-05-21T04:58:35;10.00;;;6.43;;
48122;SDS011;33907;47.426;18.906;2023-05-21T05:01:06;11.68;;;7.12;;
48122;SDS011;33907;47.426;18.906;2023-05-21T05:03:35;14.82;;;7.07;;
48122;SDS011;33907;47.426;18.906;2023-05-21T05:06:03;9.90;;;6.28;;
48122;SDS011;33907;47.426;18.906;2023-05-21T05:08:31;9.90;;;6.35;;
48122;SDS011;33907;47.426;18.906;2023-05-21T05:10:59;11.43;;;6.43;;
48122;SDS011;33907;47.426;18.906;2023-05-21T05:13:26;8.85;;;6.03;;
48122;SDS011;33907;47.426;18.906;2023-05-21T05:15:55;9.80;;;6.35;;
48122;SDS011;33907;47.426;18.906;2023-05-21T05:18:23;11.02;;;6.37;;
48122;SDS011;33907;47.426;18.906;2023-05-21T05:20:51;8.75;;;5.50;;
48122;SDS011;33907;47.426;18.906;2023-05-21T05:23:19;10.25;;;6.45;;
48122;SDS011;33907;47.426;18.906;2023-05-21T05:25:46;9.30;;;6.12;;
48122;SDS011;33907;47.426;18.906;2023-05-21T05:28:14;11.52;;;6.28;;
48122;SDS011;33907;47.426;18.906;2023-05-21T05:30:42;12.10;;;6.12;;
48122;SDS011;33907;47.426;18.906;2023-05-21T05:33:10;9.98;;;6.68;;
48122;SDS011;33907;47.426;18.906;2023-05-21T05:35:38;11.38;;;5.78;;
48122;SDS011;33907;47.426;18.906;2023-05-21T05:38:06;14.65;;;6.50;;
48122;SDS011;33907;47.426;18.906;2023-05-21T05:40:35;8.55;;;5.87;;
48122;SDS011;33907;47.426;18.906;2023-05-21T05:43:03;9.85;;;6.35;;
48122;SDS011;33907;47.426;18.906;2023-05-21T05:45:31;9.88;;;5.82;;
48122;SDS011;33907;47.426;18.906;2023-05-21T05:48:00;10.07;;;5.43;;
48122;SDS011;33907;47.426;18.906;2023-05-21T05:50:28;11.40;;;6.07;;
48122;SDS011;33907;47.426;18.906;2023-05-21T05:52:56;9.40;;;5.80;;
48122;SDS011;33907;47.426;18.906;2023-05-21T05:55:23;11.10;;;5.45;;
48122;SDS011;33907;47.426;18.906;2023-05-21T05:57:52;10.57;;;5.47;;
48122;SDS011;33907;47.426;18.906;2023-05-21T06:00:20;11.82;;;6.07;;
48122;SDS011;33907;47.426;18.906;2023-05-21T06:02:48;7.97;;;5.62;;
48122;SDS011;33907;47.426;18.906;2023-05-21T06:05:16;7.03;;;4.78;;
48122;SDS011;33907;47.426;18.906;2023-05-21T06:07:43;11.75;;;5.32;;
48122;SDS011;33907;47.426;18.906;2023-05-21T06:10:11;10.57;;;5.75;;
48122;SDS011;33907;47.426;18.906;2023-05-21T06:12:39;8.55;;;4.85;;
48122;SDS011;33907;47.426;18.906;2023-05-21T06:15:07;10.07;;;4.90;;
48122;SDS011;33907;47.426;18.906;2023-05-21T06:17:35;7.47;;;5.05;;
48122;SDS011;33907;47.426;18.906;2023-05-21T06:20:03;10.10;;;4.90;;
48122;SDS011;33907;47.426;18.906;2023-05-21T06:22:31;9.00;;;5.05;;
48122;SDS011;33907;47.426;18.906;2023-05-21T06:24:59;9.98;;;5.57;;
48122;SDS011;33907;47.426;18.906;2023-05-21T06:27:27;9.02;;;5.45;;
48122;SDS011;33907;47.426;18.906;2023-05-21T06:29:54;8.25;;;5.05;;
48122;SDS011;33907;47.426;18.906;2023-05-21T06:32:23;11.15;;;5.20;;
48122;SDS011;33907;47.426;18.906;2023-05-21T06:34:51;8.43;;;5.25;;
48122;SDS011;33907;47.426;18.906;2023-05-21T06:37:19;9.75;;;5.45;;
48122;SDS011;33907;47.426;18.906;2023-05-21T06:39:48;9.07;;;4.80;;
48122;SDS011;33907;47.426;18.906;2023-05-21T06:42:16;8.95;;;4.85;;
48122;SDS011;33907;47.426;18.906;2023-05-21T06:44:45;8.77;;;4.60;;
48122;SDS011;33907;47.426;18.906;2023-05-21T06:47:12;7.30;;;5.35;;
48122;SDS011;33907;47.426;18.906;2023-05-21T06:49:40;7.45;;;4.32;;
48122;SDS011;33907;47.426;18.906;2023-05-21T06:52:07;10.65;;;4.85;;
48122;SDS011;33907;47.426;18.906;2023-05-21T06:54:35;11.70;;;5.37;;
48122;SDS011;33907;47.426;18.906;2023-05-21T06:57:03;9.85;;;5.10;;
48122;SDS011;33907;47.426;18.906;2023-05-21T06:59:30;7.07;;;4.57;;
48122;SDS011;33907;47.426;18.906;2023-05-21T07:01:59;8.63;;;4.80;;
48122;SDS011;33907;47.426;18.906;2023-05-21T07:04:30;7.15;;;4.28;;
48122;SDS011;33907;47.426;18.906;2023-05-21T07:06:58;11.27;;;5.28;;
48122;SDS011;33907;47.426;18.906;2023-05-21T07:09:26;9.55;;;4.78;;
48122;SDS011;33907;47.426;18.906;2023-05-21T07:11:53;7.80;;;4.82;;
48122;SDS011;33907;47.426;18.906;2023-05-21T07:14:22;9.02;;;5.18;;
48122;SDS011;33907;47.426;18.906;2023-05-21T07:16:51;7.37;;;4.62;;
48122;SDS011;33907;47.426;18.906;2023-05-21T07:19:19;8.40;;;4.85;;
48122;SDS011;33907;47.426;18.906;2023-05-21T07:21:48;10.98;;;5.05;;
48122;SDS011;33907;47.426;18.906;2023-05-21T07:24:15;8.25;;;4.78;;
48122;SDS011;33907;47.426;18.906;2023-05-21T07:26:43;10.30;;;4.82;;
48122;SDS011;33907;47.426;18.906;2023-05-21T07:29:11;10.60;;;4.70;;
48122;SDS011;33907;47.426;18.906;2023-05-21T07:31:39;7.20;;;4.62;;
48122;SDS011;33907;47.426;18.906;2023-05-21T07:34:06;9.63;;;5.15;;
48122;SDS011;33907;47.426;18.906;2023-05-21T07:36:34;7.68;;;5.07;;
48122;SDS011;33907;47.426;18.906;2023-05-21T07:39:02;10.20;;;5.15;;
48122;SDS011;33907;47.426;18.906;2023-05-21T07:41:30;8.88;;;4.90;;
48122;SDS011;33907;47.426;18.906;2023-05-21T07:43:59;9.98;;;5.22;;
48122;SDS011;33907;47.426;18.906;2023-05-21T07:46:27;11.73;;;5.22;;
48122;SDS011;33907;47.426;18.906;2023-05-21T07:48:55;8.43;;;4.82;;
48122;SDS011;33907;47.426;18.906;2023-05-21T07:51:24;7.60;;;4.82;;
48122;SDS011;33907;47.426;18.906;2023-05-21T07:53:52;9.02;;;4.87;;
48122;SDS011;33907;47.426;18.906;2023-05-21T07:56:22;7.60;;;4.60;;
48122;SDS011;33907;47.426;18.906;2023-05-21T07:58:50;8.65;;;4.40;;
48122;SDS011;33907;47.426;18.906;2023-05-21T08:01:18;7.65;;;4.78;;
48122;SDS011;33907;47.426;18.906;2023-05-21T08:03:46;6.93;;;4.85;;
48122;SDS011;33907;47.426;18.906;2023-05-21T08:06:14;8.98;;;5.10;;
48122;SDS011;33907;47.426;18.906;2023-05-21T08:08:41;15.95;;;5.10;;
48122;SDS011;33907;47.426;18.906;2023-05-21T08:11:09;8.13;;;4.37;;
48122;SDS011;33907;47.426;18.906;2023-05-21T08:13:37;11.00;;;4.70;;
48122;SDS011;33907;47.426;18.906;2023-05-21T08:16:04;12.07;;;5.53;;
48122;SDS011;33907;47.426;18.906;2023-05-21T08:18:35;8.38;;;4.80;;
48122;SDS011;33907;47.426;18.906;2023-05-21T08:21:03;11.65;;;5.00;;
48122;SDS011;33907;47.426;18.906;2023-05-21T08:23:31;10.18;;;4.97;;
48122;SDS011;33907;47.426;18.906;2023-05-21T08:25:59;9.02;;;5.07;;
48122;SDS011;33907;47.426;18.906;2023-05-21T08:28:26;9.77;;;5.28;;
48122;SDS011;33907;47.426;18.906;2023-05-21T08:30:55;8.68;;;5.45;;
48122;SDS011;33907;47.426;18.906;2023-05-21T08:33:23;9.70;;;5.43;;
48122;SDS011;33907;47.426;18.906;2023-05-21T08:35:59;10.93;;;4.93;;
48122;SDS011;33907;47.426;18.906;2023-05-21T08:38:27;8.35;;;4.87;;
48122;SDS011;33907;47.426;18.906;2023-05-21T08:40:57;11.70;;;5.47;;
48122;SDS011;33907;47.426;18.906;2023-05-21T08:43:26;10.02;;;5.05;;
48122;SDS011;33907;47.426;18.906;2023-05-21T08:45:54;12.80;;;5.10;;
48122;SDS011;33907;47.426;18.906;2023-05-21T08:48:24;8.38;;;5.03;;
48122;SDS011;33907;47.426;18.906;2023-05-21T08:50:53;8.65;;;4.82;;
48122;SDS011;33907;47.426;18.906;2023-05-21T08:53:31;8.63;;;5.45;;
48122;SDS011;33907;47.426;18.906;2023-05-21T08:56:00;12.45;;;5.15;;
48122;SDS011;33907;47.426;18.906;2023-05-21T09:01:05;9.18;;;5.32;;
48122;SDS011;33907;47.426;18.906;2023-05-21T09:03:34;9.52;;;4.95;;
48122;SDS011;33907;47.426;18.906;2023-05-21T09:06:09;10.13;;;4.68;;
48122;SDS011;33907;47.426;18.906;2023-05-21T09:08:37;7.35;;;4.95;;
48122;SDS011;33907;47.426;18.906;2023-05-21T09:11:10;7.65;;;5.03;;
48122;SDS011;33907;47.426;18.906;2023-05-21T09:13:39;10.68;;;5.50;;
48122;SDS011;33907;47.426;18.906;2023-05-21T09:16:07;11.32;;;4.90;;
48122;SDS011;33907;47.426;18.906;2023-05-21T09:18:36;8.77;;;5.15;;
48122;SDS011;33907;47.426;18.906;2023-05-21T09:23:56;9.52;;;5.05;;
48122;SDS011;33907;47.426;18.906;2023-05-21T09:26:25;8.38;;;5.50;;
48122;SDS011;33907;47.426;18.906;2023-05-21T09:28:57;9.02;;;5.10;;
48122;SDS011;33907;47.426;18.906;2023-05-21T09:31:26;7.70;;;4.93;;
48122;SDS011;33907;47.426;18.906;2023-05-21T09:33:55;8.13;;;4.90;;
48122;SDS011;33907;47.426;18.906;2023-05-21T09:36:24;7.40;;;5.35;;
48122;SDS011;33907;47.426;18.906;2023-05-21T09:38:52;7.95;;;4.43;;
48122;SDS011;33907;47.426;18.906;2023-05-21T09:41:20;10.18;;;5.10;;
48122;SDS011;33907;47.426;18.906;2023-05-21T09:43:58;8.10;;;4.90;;
48122;SDS011;33907;47.426;18.906;2023-05-21T09:46:27;8.45;;;4.95;;
48122;SDS011;33907;47.426;18.906;2023-05-21T09:49:05;8.77;;;4.95;;
48122;SDS011;33907;47.426;18.906;2023-05-21T09:51:33;10.90;;;4.87;;
48122;SDS011;33907;47.426;18.906;2023-05-21T09:54:04;9.02;;;4.62;;
48122;SDS011;33907;47.426;18.906;2023-05-21T09:56:32;8.52;;;4.60;;
48122;SDS011;33907;47.426;18.906;2023-05-21T09:59:02;9.73;;;4.62;;
48122;SDS011;33907;47.426;18.906;2023-05-21T10:01:33;7.22;;;4.60;;
48122;SDS011;33907;47.426;18.906;2023-05-21T10:04:03;8.82;;;5.12;;
48122;SDS011;33907;47.426;18.906;2023-05-21T10:06:36;6.35;;;4.07;;
48122;SDS011;33907;47.426;18.906;2023-05-21T10:09:14;8.35;;;4.25;;
48122;SDS011;33907;47.426;18.906;2023-05-21T10:11:42;7.10;;;4.47;;
48122;SDS011;33907;47.426;18.906;2023-05-21T10:14:20;6.10;;;3.90;;
48122;SDS011;33907;47.426;18.906;2023-05-21T10:16:49;6.95;;;3.90;;
48122;SDS011;33907;47.426;18.906;2023-05-21T10:19:19;8.40;;;4.62;;
48122;SDS011;33907;47.426;18.906;2023-05-21T10:21:46;6.22;;;4.10;;
48122;SDS011;33907;47.426;18.906;2023-05-21T10:24:16;6.93;;;4.15;;
48122;SDS011;33907;47.426;18.906;2023-05-21T10:26:44;7.82;;;4.15;;
48122;SDS011;33907;47.426;18.906;2023-05-21T10:29:12;8.70;;;4.60;;
48122;SDS011;33907;47.426;18.906;2023-05-21T10:31:42;7.35;;;4.30;;
48122;SDS011;33907;47.426;18.906;2023-05-21T10:34:15;8.98;;;4.18;;
48122;SDS011;33907;47.426;18.906;2023-05-21T10:36:43;8.75;;;4.55;;
48122;SDS011;33907;47.426;18.906;2023-05-21T10:39:11;8.60;;;4.20;;
48122;SDS011;33907;47.426;18.906;2023-05-21T10:41:50;10.65;;;4.12;;
48122;SDS011;33907;47.426;18.906;2023-05-21T10:47:37;7.80;;;4.25;;
48122;SDS011;33907;47.426;18.906;2023-05-21T10:53:12;8.25;;;4.22;;
48122;SDS011;33907;47.426;18.906;2023-05-21T11:01:30;6.47;;;4.45;;
48122;SDS011;33907;47.426;18.906;2023-05-21T11:04:00;8.43;;;4.07;;
48122;SDS011;33907;47.426;18.906;2023-05-21T11:06:28;9.88;;;4.70;;
48122;SDS011;33907;47.426;18.906;2023-05-21T11:08:56;6.62;;;3.80;;
48122;SDS011;33907;47.426;18.906;2023-05-21T11:11:42;6.30;;;3.87;;
48122;SDS011;33907;47.426;18.906;2023-05-21T11:17:03;7.45;;;4.50;;
48122;SDS011;33907;47.426;18.906;2023-05-21T11:22:26;9.70;;;4.55;;
48122;SDS011;33907;47.426;18.906;2023-05-21T11:24:53;10.57;;;4.32;;
48122;SDS011;33907;47.426;18.906;2023-05-21T11:27:35;11.00;;;3.83;;
48122;SDS011;33907;47.426;18.906;2023-05-21T11:30:04;7.12;;;4.32;;
48122;SDS011;33907;47.426;18.906;2023-05-21T11:32:37;6.97;;;3.72;;
48122;SDS011;33907;47.426;18.906;2023-05-21T11:35:06;7.28;;;3.85;;
48122;SDS011;33907;47.426;18.906;2023-05-21T11:37:34;8.90;;;4.62;;
48122;SDS011;33907;47.426;18.906;2023-05-21T11:40:14;6.22;;;3.90;;
48122;SDS011;33907;47.426;18.906;2023-05-21T11:42:50;7.97;;;3.70;;
48122;SDS011;33907;47.426;18.906;2023-05-21T11:45:19;5.90;;;3.50;;
48122;SDS011;33907;47.426;18.906;2023-05-21T11:47:48;7.25;;;3.60;;
48122;SDS011;33907;47.426;18.906;2023-05-21T11:50:17;6.07;;;4.07;;
48122;SDS011;33907;47.426;18.906;2023-05-21T11:52:44;8.95;;;4.40;;
48122;SDS011;33907;47.426;18.906;2023-05-21T11:55:12;7.32;;;4.75;;
48122;SDS011;33907;47.426;18.906;2023-05-21T11:57:42;7.68;;;4.22;;
48122;SDS011;33907;47.426;18.906;2023-05-21T12:00:14;7.43;;;4.55;;
48122;SDS011;33907;47.426;18.906;2023-05-21T12:02:46;6.90;;;4.57;;
48122;SDS011;33907;47.426;18.906;2023-05-21T12:05:15;7.20;;;4.15;;
48122;SDS011;33907;47.426;18.906;2023-05-21T12:07:47;7.20;;;4.00;;
48122;SDS011;33907;47.426;18.906;2023-05-21T12:10:19;6.78;;;4.22;;
48122;SDS011;33907;47.426;18.906;2023-05-21T12:12:48;8.55;;;4.28;;
48122;SDS011;33907;47.426;18.906;2023-05-21T12:15:22;9.63;;;4.60;;
48122;SDS011;33907;47.426;18.906;2023-05-21T12:17:53;8.05;;;4.12;;
48122;SDS011;33907;47.426;18.906;2023-05-21T12:20:21;9.90;;;4.20;;
48122;SDS011;33907;47.426;18.906;2023-05-21T12:22:49;6.72;;;4.43;;
48122;SDS011;33907;47.426;18.906;2023-05-21T12:25:18;10.15;;;5.25;;
48122;SDS011;33907;47.426;18.906;2023-05-21T12:27:48;8.80;;;4.37;;
48122;SDS011;33907;47.426;18.906;2023-05-21T12:30:24;7.82;;;4.60;;
48122;SDS011;33907;47.426;18.906;2023-05-21T12:32:52;6.90;;;3.95;;
48122;SDS011;33907;47.426;18.906;2023-05-21T12:35:22;8.00;;;4.35;;
48122;SDS011;33907;47.426;18.906;2023-05-21T12:37:51;11.25;;;4.18;;
48122;SDS011;33907;47.426;18.906;2023-05-21T12:40:19;9.40;;;4.62;;
48122;SDS011;33907;47.426;18.906;2023-05-21T12:42:47;6.65;;;4.55;;
48122;SDS011;33907;47.426;18.906;2023-05-21T12:45:16;9.60;;;4.97;;
48122;SDS011;33907;47.426;18.906;2023-05-21T12:47:48;8.77;;;4.47;;
48122;SDS011;33907;47.426;18.906;2023-05-21T12:50:19;6.32;;;4.50;;
48122;SDS011;33907;47.426;18.906;2023-05-21T12:52:47;12.25;;;4.75;;
48122;SDS011;33907;47.426;18.906;2023-05-21T12:55:15;6.72;;;4.57;;
48122;SDS011;33907;47.426;18.906;2023-05-21T12:57:43;7.60;;;4.25;;
48122;SDS011;33907;47.426;18.906;2023-05-21T13:00:10;8.90;;;4.43;;
48122;SDS011;33907;47.426;18.906;2023-05-21T13:02:39;7.85;;;4.47;;
48122;SDS011;33907;47.426;18.906;2023-05-21T13:05:09;8.43;;;4.53;;
48122;SDS011;33907;47.426;18.906;2023-05-21T13:07:43;9.52;;;4.80;;
48122;SDS011;33907;47.426;18.906;2023-05-21T13:10:14;11.75;;;4.65;;
48122;SDS011;33907;47.426;18.906;2023-05-21T13:12:43;10.98;;;4.87;;
48122;SDS011;33907;47.426;18.906;2023-05-21T13:15:11;8.50;;;3.87;;
48122;SDS011;33907;47.426;18.906;2023-05-21T13:17:38;7.70;;;4.55;;
48122;SDS011;33907;47.426;18.906;2023-05-21T13:20:09;7.70;;;3.92;;
48122;SDS011;33907;47.426;18.906;2023-05-21T13:22:45;10.70;;;4.18;;
48122;SDS011;33907;47.426;18.906;2023-05-21T13:25:14;9.50;;;4.65;;
48122;SDS011;33907;47.426;18.906;2023-05-21T13:27:45;12.45;;;4.55;;
48122;SDS011;33907;47.426;18.906;2023-05-21T13:30:16;7.57;;;4.43;;
48122;SDS011;33907;47.426;18.906;2023-05-21T13:32:45;9.70;;;5.10;;
48122;SDS011;33907;47.426;18.906;2023-05-21T13:35:13;8.40;;;4.40;;
48122;SDS011;33907;47.426;18.906;2023-05-21T13:37:42;12.55;;;4.62;;
48122;SDS011;33907;47.426;18.906;2023-05-21T13:40:11;7.90;;;4.30;;
48122;SDS011;33907;47.426;18.906;2023-05-21T13:42:43;8.45;;;4.30;;
48122;SDS011;33907;47.426;18.906;2023-05-21T13:45:13;8.13;;;4.82;;
48122;SDS011;33907;47.426;18.906;2023-05-21T13:47:45;10.27;;;4.30;;
48122;SDS011;33907;47.426;18.906;2023-05-21T13:50:14;10.25;;;5.05;;
48122;SDS011;33907;47.426;18.906;2023-05-21T13:52:42;9.02;;;4.35;;
48122;SDS011;33907;47.426;18.906;2023-05-21T13:55:10;7.45;;;4.10;;
48122;SDS011;33907;47.426;18.906;2023-05-21T13:57:38;7.18;;;4.30;;
48122;SDS011;33907;47.426;18.906;2023-05-21T14:00:07;10.30;;;4.60;;
48122;SDS011;33907;47.426;18.906;2023-05-21T14:02:41;9.45;;;4.80;;
48122;SDS011;33907;47.426;18.906;2023-05-21T14:05:09;8.82;;;4.28;;
48122;SDS011;33907;47.426;18.906;2023-05-21T14:07:37;10.57;;;4.87;;
48122;SDS011;33907;47.426;18.906;2023-05-21T14:10:06;9.60;;;4.30;;
48122;SDS011;33907;47.426;18.906;2023-05-21T14:12:34;8.25;;;4.05;;
48122;SDS011;33907;47.426;18.906;2023-05-21T14:15:01;6.40;;;4.32;;
48122;SDS011;33907;47.426;18.906;2023-05-21T14:17:30;7.72;;;4.10;;
48122;SDS011;33907;47.426;18.906;2023-05-21T14:19:58;7.45;;;4.95;;
48122;SDS011;33907;47.426;18.906;2023-05-21T14:22:25;7.50;;;4.60;;
48122;SDS011;33907;47.426;18.906;2023-05-21T14:24:53;7.43;;;4.10;;
48122;SDS011;33907;47.426;18.906;2023-05-21T14:27:20;11.05;;;4.15;;
48122;SDS011;33907;47.426;18.906;2023-05-21T14:29:48;7.05;;;4.47;;
48122;SDS011;33907;47.426;18.906;2023-05-21T14:32:16;9.20;;;4.10;;
48122;SDS011;33907;47.426;18.906;2023-05-21T14:34:44;8.38;;;4.60;;
48122;SDS011;33907;47.426;18.906;2023-05-21T14:37:11;6.95;;;4.20;;
48122;SDS011;33907;47.426;18.906;2023-05-21T14:39:39;8.95;;;4.68;;
48122;SDS011;33907;47.426;18.906;2023-05-21T14:42:06;6.97;;;4.28;;
48122;SDS011;33907;47.426;18.906;2023-05-21T14:44:34;9.93;;;4.60;;
48122;SDS011;33907;47.426;18.906;2023-05-21T14:47:02;9.10;;;5.10;;
48122;SDS011;33907;47.426;18.906;2023-05-21T14:49:29;8.82;;;4.43;;
48122;SDS011;33907;47.426;18.906;2023-05-21T14:51:57;7.50;;;4.22;;
48122;SDS011;33907;47.426;18.906;2023-05-21T14:54:24;7.40;;;4.22;;
48122;SDS011;33907;47.426;18.906;2023-05-21T14:56:52;7.53;;;4.00;;
48122;SDS011;33907;47.426;18.906;2023-05-21T14:59:20;9.70;;;5.28;;
48122;SDS011;33907;47.426;18.906;2023-05-21T15:01:48;8.18;;;4.62;;
48122;SDS011;33907;47.426;18.906;2023-05-21T15:04:15;9.50;;;4.40;;